createdAt,value
2018-10-09T00:00:34.703Z,0.00
2018-10-09T00:01:34.663Z,0.00
2018-10-09T00:02:34.625Z,0.00
2018-10-09T00:03:34.600Z,0.00
2018-10-09T00:04:34.552Z,0.00
2018-10-09T00:05:34.516Z,0.00
2018-10-09T00:06:34.478Z,0.00
2018-10-09T00:07:34.441Z,0.00
2018-10-09T00:08:34.429Z,0.00
2018-10-09T00:09:34.370Z,0.00
2018-10-09T00:10:34.342Z,0.00
2018-10-09T00:11:34.295Z,0.00
2018-10-09T00:12:34.259Z,0.00
2018-10-09T00:13:34.235Z,0.00
2018-10-09T00:14:34.188Z,0.00
2018-10-09T00:15:34.147Z,0.00
2018-10-09T00:16:34.114Z,0.00
2018-10-09T00:17:34.074Z,0.00
2018-10-09T00:18:34.051Z,0.00
2018-10-09T00:19:34.003Z,0.00
2018-10-09T00:20:33.965Z,0.00
2018-10-09T00:21:33.940Z,0.00
2018-10-09T00:22:33.890Z,0.00
2018-10-09T00:23:33.883Z,0.00
2018-10-09T00:24:33.820Z,0.00
2018-10-09T00:25:33.782Z,0.00
2018-10-09T00:26:33.744Z,0.00
2018-10-09T00:27:33.711Z,0.00
2018-10-09T00:28:33.713Z,0.00
2018-10-09T00:29:33.645Z,0.00
2018-10-09T00:30:33.598Z,0.00
2018-10-09T00:31:33.562Z,0.00
2018-10-09T00:32:33.528Z,0.00
2018-10-09T00:33:33.497Z,0.00
2018-10-09T00:34:33.457Z,0.00
2018-10-09T00:35:33.416Z,0.00
2018-10-09T00:36:33.380Z,0.00
2018-10-09T00:37:33.345Z,0.00
2018-10-09T00:38:33.314Z,0.00
2018-10-09T00:39:33.269Z,0.00
2018-10-09T00:40:33.235Z,0.00
2018-10-09T00:41:33.196Z,0.00
2018-10-09T00:42:33.160Z,0.00
2018-10-09T00:43:33.175Z,0.00
2018-10-09T00:44:33.085Z,0.00
2018-10-09T00:45:33.048Z,0.00
2018-10-09T00:46:33.019Z,0.00
2018-10-09T00:47:32.977Z,0.00
2018-10-09T00:48:32.948Z,0.00
2018-10-09T00:49:32.901Z,0.00
2018-10-09T00:50:32.860Z,0.00
2018-10-09T00:51:32.830Z,0.00
2018-10-09T00:52:32.791Z,0.00
2018-10-09T00:53:32.772Z,0.00
2018-10-09T00:54:32.725Z,0.00
2018-10-09T00:55:32.680Z,0.00
2018-10-09T00:56:32.647Z,0.00
2018-10-09T00:57:32.607Z,0.00
2018-10-09T00:58:32.629Z,0.00
2018-10-09T00:59:32.540Z,0.00
2018-10-09T01:00:32.504Z,0.00
2018-10-09T01:01:32.464Z,0.00
2018-10-09T01:02:32.423Z,0.00
2018-10-09T01:03:32.393Z,0.00
2018-10-09T01:04:32.360Z,0.00
2018-10-09T01:05:32.315Z,0.00
2018-10-09T01:06:32.276Z,0.00
2018-10-09T01:07:32.252Z,0.00
2018-10-09T01:08:32.205Z,0.00
2018-10-09T01:09:32.171Z,0.00
2018-10-09T01:10:32.131Z,0.00
2018-10-09T01:11:32.086Z,0.00
2018-10-09T01:12:32.056Z,0.00
2018-10-09T01:13:32.020Z,0.00
2018-10-09T01:14:31.989Z,0.00
2018-10-09T01:15:31.951Z,0.00
2018-10-09T01:16:31.909Z,0.00
2018-10-09T01:17:31.872Z,0.00
2018-10-09T01:18:31.835Z,0.00
2018-10-09T01:19:31.819Z,0.00
2018-10-09T01:20:31.765Z,0.00
2018-10-09T01:21:31.740Z,0.00
2018-10-09T01:22:31.686Z,0.00
2018-10-09T01:23:31.651Z,0.00
2018-10-09T01:24:31.622Z,0.00
2018-10-09T01:25:31.576Z,0.00
2018-10-09T01:26:32.204Z,0.00
2018-10-09T01:27:31.503Z,0.00
2018-10-09T01:28:31.464Z,0.00
2018-10-09T01:29:31.445Z,0.00
2018-10-09T01:30:31.394Z,0.00
2018-10-09T01:31:31.356Z,0.00
2018-10-09T01:32:31.316Z,0.00
2018-10-09T01:33:31.283Z,0.00
2018-10-09T01:34:31.251Z,0.00
2018-10-09T01:35:31.204Z,0.00
2018-10-09T01:36:31.176Z,0.00
2018-10-09T01:37:31.132Z,0.00
2018-10-09T01:38:31.100Z,0.00
2018-10-09T01:39:31.068Z,0.00
2018-10-09T01:40:31.023Z,0.00
2018-10-09T01:41:30.989Z,0.00
2018-10-09T01:42:30.949Z,0.00
2018-10-09T01:43:30.913Z,0.00
2018-10-09T01:44:30.882Z,0.00
2018-10-09T01:45:30.837Z,0.00
2018-10-09T01:46:30.798Z,0.00
2018-10-09T01:47:30.763Z,0.00
2018-10-09T01:48:30.726Z,0.00
2018-10-09T01:49:30.697Z,0.00
2018-10-09T01:50:30.650Z,0.00
2018-10-09T01:51:30.610Z,0.00
2018-10-09T01:52:30.580Z,0.00
2018-10-09T01:53:30.540Z,0.00
2018-10-09T01:54:30.512Z,0.00
2018-10-09T01:55:30.464Z,0.00
2018-10-09T01:56:30.426Z,0.00
2018-10-09T01:57:30.391Z,0.00
2018-10-09T01:58:30.352Z,0.00
2018-10-09T01:59:30.323Z,0.00
2018-10-09T02:00:30.276Z,0.00
2018-10-09T02:01:30.240Z,0.00
2018-10-09T02:02:30.204Z,0.00
2018-10-09T02:03:30.168Z,0.00
2018-10-09T02:04:30.140Z,0.00
2018-10-09T02:05:30.095Z,0.00
2018-10-09T02:06:30.061Z,0.00
2018-10-09T02:07:30.023Z,0.00
2018-10-09T02:08:29.979Z,0.00
2018-10-09T02:09:29.961Z,0.00
2018-10-09T02:10:29.906Z,0.00
2018-10-09T02:11:29.870Z,0.00
2018-10-09T02:12:29.835Z,0.00
2018-10-09T02:13:29.798Z,0.00
2018-10-09T02:14:29.756Z,0.00
2018-10-09T02:15:29.731Z,0.00
2018-10-09T02:16:29.685Z,0.00
2018-10-09T02:17:29.667Z,0.00
2018-10-09T02:18:29.656Z,0.00
2018-10-09T02:19:29.592Z,0.00
2018-10-09T02:20:29.541Z,0.00
2018-10-09T02:21:29.498Z,0.00
2018-10-09T02:22:29.460Z,0.00
2018-10-09T02:23:29.421Z,0.00
2018-10-09T02:24:29.383Z,0.00
2018-10-09T02:25:29.360Z,0.00
2018-10-09T02:26:29.310Z,0.00
2018-10-09T02:27:29.272Z,0.00
2018-10-09T02:28:29.241Z,0.00
2018-10-09T02:29:29.202Z,0.00
2018-10-09T02:30:29.170Z,0.00
2018-10-09T02:31:29.125Z,0.00
2018-10-09T02:32:29.085Z,0.00
2018-10-09T02:33:29.077Z,0.00
2018-10-09T02:34:29.011Z,0.00
2018-10-09T02:35:28.995Z,0.00
2018-10-09T02:36:28.937Z,0.00
2018-10-09T02:37:28.896Z,0.00
2018-10-09T02:38:28.863Z,0.00
2018-10-09T02:39:28.826Z,0.00
2018-10-09T02:40:28.796Z,0.00
2018-10-09T02:41:28.751Z,0.00
2018-10-09T02:42:28.719Z,0.00
2018-10-09T02:43:28.676Z,0.00
2018-10-09T02:44:28.636Z,0.00
2018-10-09T02:45:28.611Z,0.00
2018-10-09T02:46:28.564Z,0.00
2018-10-09T02:47:28.526Z,0.00
2018-10-09T02:48:28.490Z,0.00
2018-10-09T02:49:28.463Z,0.00
2018-10-09T02:50:28.420Z,0.00
2018-10-09T02:51:28.374Z,0.00
2018-10-09T02:52:28.339Z,0.00
2018-10-09T02:53:28.300Z,0.00
2018-10-09T02:54:28.268Z,0.00
2018-10-09T02:55:28.232Z,0.00
2018-10-09T02:56:28.191Z,0.00
2018-10-09T02:57:28.150Z,0.00
2018-10-09T02:58:28.111Z,0.00
2018-10-09T02:59:28.076Z,0.00
2018-10-09T03:00:28.053Z,0.00
2018-10-09T03:01:28.001Z,0.00
2018-10-09T03:02:27.964Z,0.00
2018-10-09T03:03:27.928Z,0.00
2018-10-09T03:04:27.889Z,0.00
2018-10-09T03:05:27.856Z,0.00
2018-10-09T03:06:27.808Z,0.00
2018-10-09T03:07:27.780Z,0.00
2018-10-09T03:08:27.778Z,0.00
2018-10-09T03:09:27.744Z,0.00
2018-10-09T03:10:27.694Z,0.00
2018-10-09T03:11:27.655Z,0.00
2018-10-09T03:12:27.587Z,0.00
2018-10-09T03:13:27.554Z,0.00
2018-10-09T03:14:27.515Z,0.00
2018-10-09T03:15:27.491Z,0.00
2018-10-09T03:16:27.438Z,0.00
2018-10-09T03:17:27.407Z,0.00
2018-10-09T03:18:27.363Z,0.00
2018-10-09T03:19:27.325Z,0.00
2018-10-09T03:20:27.350Z,0.00
2018-10-09T03:21:27.248Z,0.00
2018-10-09T03:22:27.217Z,0.00
2018-10-09T03:23:27.181Z,0.00
2018-10-09T03:24:27.139Z,0.00
2018-10-09T03:25:27.099Z,0.00
2018-10-09T03:26:27.079Z,0.00
2018-10-09T03:27:27.029Z,0.00
2018-10-09T03:28:26.994Z,0.00
2018-10-09T03:29:26.949Z,0.00
2018-10-09T03:30:26.911Z,0.00
2018-10-09T03:31:26.892Z,0.00
2018-10-09T03:32:26.832Z,0.00
2018-10-09T03:33:26.799Z,0.00
2018-10-09T03:34:26.764Z,0.00
2018-10-09T03:35:26.726Z,0.00
2018-10-09T03:36:26.698Z,0.00
2018-10-09T03:37:26.650Z,0.00
2018-10-09T03:38:26.614Z,0.00
2018-10-09T03:39:26.581Z,0.00
2018-10-09T03:40:26.537Z,0.00
2018-10-09T03:41:26.510Z,0.00
2018-10-09T03:42:26.474Z,0.00
2018-10-09T03:43:26.429Z,0.00
2018-10-09T03:44:26.394Z,0.00
2018-10-09T03:45:26.357Z,0.00
2018-10-09T03:46:26.315Z,0.00
2018-10-09T03:47:26.275Z,0.00
2018-10-09T03:48:26.236Z,0.00
2018-10-09T03:49:26.199Z,0.00
2018-10-09T03:50:26.162Z,0.00
2018-10-09T03:51:26.134Z,0.00
2018-10-09T03:52:26.090Z,0.00
2018-10-09T03:53:26.049Z,0.00
2018-10-09T03:54:26.010Z,0.00
2018-10-09T03:55:25.973Z,0.00
2018-10-09T03:56:25.947Z,0.00
2018-10-09T03:57:25.897Z,0.00
2018-10-09T03:58:25.861Z,0.00
2018-10-09T03:59:25.833Z,0.00
2018-10-09T04:00:25.782Z,0.00
2018-10-09T04:01:25.761Z,0.00
2018-10-09T04:02:25.713Z,0.00
2018-10-09T04:03:25.673Z,0.00
2018-10-09T04:04:25.634Z,0.00
2018-10-09T04:05:25.597Z,0.00
2018-10-09T04:06:25.575Z,0.00
2018-10-09T04:07:25.530Z,0.00
2018-10-09T04:08:25.484Z,0.00
2018-10-09T04:09:25.475Z,0.00
2018-10-09T04:10:25.429Z,0.00
2018-10-09T04:11:25.389Z,0.00
2018-10-09T04:12:25.332Z,0.00
2018-10-09T04:13:25.315Z,0.00
2018-10-09T04:14:25.264Z,0.00
2018-10-09T04:15:25.224Z,0.00
2018-10-09T04:16:25.191Z,0.00
2018-10-09T04:17:25.149Z,0.00
2018-10-09T04:18:25.107Z,0.00
2018-10-09T04:19:25.144Z,0.00
2018-10-09T04:20:25.032Z,0.00
2018-10-09T04:21:25.009Z,0.00
2018-10-09T04:22:24.970Z,0.00
2018-10-09T04:23:24.921Z,0.00
2018-10-09T04:24:24.883Z,0.00
2018-10-09T04:25:24.843Z,0.00
2018-10-09T04:26:24.825Z,0.00
2018-10-09T04:27:24.769Z,0.00
2018-10-09T04:28:24.729Z,0.00
2018-10-09T04:29:24.761Z,0.00
2018-10-09T04:30:24.662Z,0.00
2018-10-09T04:31:24.632Z,0.00
2018-10-09T04:32:24.580Z,0.00
2018-10-09T04:33:24.544Z,0.00
2018-10-09T04:34:24.507Z,0.00
2018-10-09T04:35:24.513Z,0.00
2018-10-09T04:36:24.431Z,0.00
2018-10-09T04:37:24.404Z,0.00
2018-10-09T04:38:24.353Z,0.00
2018-10-09T04:39:24.319Z,0.00
2018-10-09T04:40:24.287Z,0.00
2018-10-09T04:41:24.240Z,0.00
2018-10-09T04:42:24.213Z,0.00
2018-10-09T04:43:24.166Z,0.00
2018-10-09T04:44:24.128Z,0.00
2018-10-09T04:45:24.101Z,0.00
2018-10-09T04:46:24.052Z,0.00
2018-10-09T04:47:24.025Z,0.00
2018-10-09T04:48:23.976Z,0.00
2018-10-09T04:49:23.944Z,0.00
2018-10-09T04:50:23.939Z,0.00
2018-10-09T04:51:23.869Z,0.00
2018-10-09T04:52:23.860Z,0.00
2018-10-09T04:53:23.794Z,0.00
2018-10-09T04:54:23.754Z,0.00
2018-10-09T04:55:23.721Z,0.00
2018-10-09T04:56:23.673Z,0.00
2018-10-09T04:57:23.647Z,0.00
2018-10-09T04:58:23.598Z,0.00
2018-10-09T04:59:23.562Z,0.00
2018-10-09T05:00:23.523Z,0.00
2018-10-09T05:01:23.495Z,0.00
2018-10-09T05:02:23.465Z,0.00
2018-10-09T05:03:23.415Z,0.00
2018-10-09T05:04:23.373Z,0.00
2018-10-09T05:05:23.336Z,0.00
2018-10-09T05:06:23.297Z,0.00
2018-10-09T05:07:23.265Z,0.00
2018-10-09T05:08:23.219Z,0.00
2018-10-09T05:09:23.183Z,0.00
2018-10-09T05:10:23.143Z,0.00
2018-10-09T05:11:23.112Z,0.00
2018-10-09T05:12:23.080Z,0.00
2018-10-09T05:13:23.028Z,0.00
2018-10-09T05:14:22.992Z,0.00
2018-10-09T05:15:22.955Z,0.00
2018-10-09T05:16:22.917Z,0.00
2018-10-09T05:17:22.887Z,4.00
2018-10-09T05:18:22.841Z,4.00
2018-10-09T05:19:22.808Z,0.00
2018-10-09T05:20:22.764Z,4.00
2018-10-09T05:21:22.731Z,4.00
2018-10-09T05:22:22.695Z,4.00
2018-10-09T05:23:22.727Z,4.00
2018-10-09T05:24:22.618Z,4.00
2018-10-09T05:25:22.576Z,4.00
2018-10-09T05:26:22.537Z,4.00
2018-10-09T05:27:22.509Z,8.00
2018-10-09T05:28:22.463Z,8.00
2018-10-09T05:29:22.428Z,8.00
2018-10-09T05:30:22.387Z,12.00
2018-10-09T05:31:22.442Z,16.00
2018-10-09T05:32:22.329Z,16.00
2018-10-09T05:33:22.310Z,20.00
2018-10-09T05:34:22.235Z,20.00
2018-10-09T05:35:22.198Z,20.00
2018-10-09T05:36:22.161Z,24.00
2018-10-09T05:37:22.139Z,28.00
2018-10-09T05:38:22.081Z,32.00
2018-10-09T05:39:22.049Z,32.00
2018-10-09T05:40:22.041Z,36.00
2018-10-09T05:41:21.970Z,40.00
2018-10-09T05:42:21.931Z,40.00
2018-10-09T05:43:21.902Z,44.00
2018-10-09T05:44:21.997Z,48.00
2018-10-09T05:45:21.816Z,56.00
2018-10-09T05:46:21.780Z,60.00
2018-10-09T05:47:21.741Z,68.00
2018-10-09T05:48:21.716Z,76.00
2018-10-09T05:49:21.663Z,84.00
2018-10-09T05:50:21.658Z,92.00
2018-10-09T05:51:21.599Z,100.00
2018-10-09T05:52:21.554Z,112.00
2018-10-09T05:53:21.535Z,124.00
2018-10-09T05:54:21.475Z,136.00
2018-10-09T05:55:21.440Z,144.00
2018-10-09T05:56:21.412Z,152.00
2018-10-09T05:57:21.367Z,168.00
2018-10-09T05:58:21.324Z,180.00
2018-10-09T05:59:21.305Z,192.00
2018-10-09T06:00:21.250Z,204.00
2018-10-09T06:01:21.213Z,224.00
2018-10-09T06:02:21.174Z,240.00
2018-10-09T06:03:21.135Z,256.00
2018-10-09T06:04:21.109Z,264.00
2018-10-09T06:05:21.058Z,272.00
2018-10-09T06:06:21.024Z,288.00
2018-10-09T06:07:20.984Z,300.00
2018-10-09T06:08:20.946Z,312.00
2018-10-09T06:09:20.915Z,328.00
2018-10-09T06:10:20.869Z,352.00
2018-10-09T06:11:20.832Z,372.00
2018-10-09T06:12:20.795Z,396.00
2018-10-09T06:13:20.755Z,404.00
2018-10-09T06:14:20.727Z,416.00
2018-10-09T06:15:20.695Z,428.00
2018-10-09T06:16:20.642Z,436.00
2018-10-09T06:17:20.605Z,448.00
2018-10-09T06:18:20.578Z,464.00
2018-10-09T06:19:20.539Z,476.00
2018-10-09T06:20:20.491Z,492.00
2018-10-09T06:21:20.462Z,508.00
2018-10-09T06:22:20.465Z,524.00
2018-10-09T06:23:20.384Z,540.00
2018-10-09T06:24:20.347Z,552.00
2018-10-09T06:25:20.307Z,572.00
2018-10-09T06:26:20.266Z,584.00
2018-10-09T06:27:20.234Z,600.00
2018-10-09T06:28:20.212Z,616.00
2018-10-09T06:29:20.168Z,636.00
2018-10-09T06:30:20.120Z,664.00
2018-10-09T06:31:20.078Z,696.00
2018-10-09T06:32:20.078Z,728.00
2018-10-09T06:33:20.004Z,760.00
2018-10-09T06:34:20.000Z,784.00
2018-10-09T06:35:19.937Z,784.00
2018-10-09T06:36:19.893Z,772.00
2018-10-09T06:37:19.916Z,764.00
2018-10-09T06:38:19.823Z,764.00
2018-10-09T06:39:19.781Z,768.00
2018-10-09T06:40:19.749Z,784.00
2018-10-09T06:41:19.705Z,796.00
2018-10-09T06:42:19.667Z,820.00
2018-10-09T06:43:19.630Z,840.00
2018-10-09T06:44:19.618Z,852.00
2018-10-09T06:45:19.561Z,872.00
2018-10-09T06:46:19.522Z,900.00
2018-10-09T06:47:19.482Z,948.00
2018-10-09T06:48:19.441Z,992.00
2018-10-09T06:49:19.405Z,1028.00
2018-10-09T06:50:19.380Z,1048.00
2018-10-09T06:51:19.331Z,1056.00
2018-10-09T06:52:19.293Z,1064.00
2018-10-09T06:53:19.308Z,1060.00
2018-10-09T06:54:19.306Z,1036.00
2018-10-09T06:55:19.190Z,1016.00
2018-10-09T06:56:19.147Z,1024.00
2018-10-09T06:57:19.112Z,1044.00
2018-10-09T06:58:19.072Z,1064.00
2018-10-09T06:59:19.034Z,1092.00
2018-10-09T07:00:19.083Z,1116.00
2018-10-09T07:01:18.964Z,1144.00
2018-10-09T07:02:18.928Z,1168.00
2018-10-09T07:03:18.889Z,1200.00
2018-10-09T07:04:18.857Z,1244.00
2018-10-09T07:05:18.825Z,1308.00
2018-10-09T07:06:18.783Z,1376.00
2018-10-09T07:07:18.743Z,1424.00
2018-10-09T07:08:18.708Z,1440.00
2018-10-09T07:09:18.709Z,1436.00
2018-10-09T07:10:18.639Z,1432.00
2018-10-09T07:11:18.653Z,1408.00
2018-10-09T07:12:18.559Z,1404.00
2018-10-09T07:13:18.524Z,1416.00
2018-10-09T07:14:18.487Z,1456.00
2018-10-09T07:15:18.457Z,1500.00
2018-10-09T07:16:18.419Z,1540.00
2018-10-09T07:17:18.373Z,1556.00
2018-10-09T07:18:18.340Z,1568.00
2018-10-09T07:19:18.307Z,1576.00
2018-10-09T07:20:18.282Z,1540.00
2018-10-09T07:21:18.229Z,1524.00
2018-10-09T07:22:18.192Z,1528.00
2018-10-09T07:23:18.158Z,1552.00
2018-10-09T07:24:18.122Z,1596.00
2018-10-09T07:25:18.091Z,1636.00
2018-10-09T07:26:18.048Z,1684.00
2018-10-09T07:27:18.015Z,1720.00
2018-10-09T07:28:17.980Z,1716.00
2018-10-09T07:29:17.941Z,1748.00
2018-10-09T07:30:17.915Z,1816.00
2018-10-09T07:31:17.869Z,1888.00
2018-10-09T07:32:17.831Z,1920.00
2018-10-09T07:33:17.798Z,1940.00
2018-10-09T07:34:17.766Z,1948.00
2018-10-09T07:35:17.746Z,1944.00
2018-10-09T07:36:17.689Z,1928.00
2018-10-09T07:37:17.649Z,1908.00
2018-10-09T07:38:17.620Z,1896.00
2018-10-09T07:39:17.587Z,1876.00
2018-10-09T07:40:17.546Z,1860.00
2018-10-09T07:41:17.519Z,1840.00
2018-10-09T07:42:17.474Z,1828.00
2018-10-09T07:43:17.439Z,1812.00
2018-10-09T07:44:17.420Z,1788.00
2018-10-09T07:45:17.365Z,1772.00
2018-10-09T07:46:17.341Z,1776.00
2018-10-09T07:47:17.295Z,1792.00
2018-10-09T07:48:17.260Z,1816.00
2018-10-09T07:49:17.225Z,1856.00
2018-10-09T07:50:17.188Z,1908.00
2018-10-09T07:51:17.162Z,1964.00
2018-10-09T07:52:17.118Z,2040.00
2018-10-09T07:53:17.141Z,2128.00
2018-10-09T07:54:17.049Z,2180.00
2018-10-09T07:55:17.014Z,2200.00
2018-10-09T07:56:16.988Z,2200.00
2018-10-09T07:57:16.940Z,2168.00
2018-10-09T07:58:16.910Z,2124.00
2018-10-09T07:59:16.874Z,2068.00
2018-10-09T08:00:16.838Z,2000.00
2018-10-09T08:01:16.816Z,1972.00
2018-10-09T08:02:16.772Z,1972.00
2018-10-09T08:03:16.747Z,1976.00
2018-10-09T08:04:16.700Z,1980.00
2018-10-09T08:05:16.661Z,1984.00
2018-10-09T08:06:16.638Z,2000.00
2018-10-09T08:07:16.599Z,2012.00
2018-10-09T08:08:16.559Z,2028.00
2018-10-09T08:09:16.530Z,2044.00
2018-10-09T08:10:16.492Z,2048.00
2018-10-09T08:11:16.473Z,2028.00
2018-10-09T08:12:16.420Z,2024.00
2018-10-09T08:13:16.387Z,1996.00
2018-10-09T08:14:16.353Z,1972.00
2018-10-09T08:15:16.320Z,1952.00
2018-10-09T08:16:16.295Z,1920.00
2018-10-09T08:17:16.254Z,1884.00
2018-10-09T08:18:16.217Z,1848.00
2018-10-09T08:19:16.185Z,1812.00
2018-10-09T08:20:16.147Z,1780.00
2018-10-09T08:21:16.120Z,1764.00
2018-10-09T08:22:16.112Z,1780.00
2018-10-09T08:23:16.049Z,1748.00
2018-10-09T08:24:16.011Z,1704.00
2018-10-09T08:25:15.978Z,1640.00
2018-10-09T08:26:15.958Z,1576.00
2018-10-09T08:27:15.911Z,1492.00
2018-10-09T08:28:15.876Z,1388.00
2018-10-09T08:29:15.842Z,1340.00
2018-10-09T08:30:15.812Z,1304.00
2018-10-09T08:31:15.784Z,1280.00
2018-10-09T08:32:15.776Z,1212.00
2018-10-09T08:33:15.710Z,1160.00
2018-10-09T08:34:15.677Z,1140.00
2018-10-09T08:35:15.641Z,1152.00
2018-10-09T08:36:15.614Z,1164.00
2018-10-09T08:37:15.572Z,1164.00
2018-10-09T08:38:15.537Z,1144.00
2018-10-09T08:39:15.509Z,1112.00
2018-10-09T08:40:15.534Z,1080.00
2018-10-09T08:41:15.499Z,1068.00
2018-10-09T08:42:15.400Z,1056.00
2018-10-09T08:43:15.372Z,1048.00
2018-10-09T08:44:15.344Z,1048.00
2018-10-09T08:45:15.298Z,1052.00
2018-10-09T08:46:15.335Z,1056.00
2018-10-09T08:47:15.241Z,1068.00
2018-10-09T08:48:15.199Z,1084.00
2018-10-09T08:49:15.164Z,1096.00
2018-10-09T08:50:15.134Z,1108.00
2018-10-09T08:51:15.118Z,1116.00
2018-10-09T08:52:15.060Z,1112.00
2018-10-09T08:53:15.027Z,1112.00
2018-10-09T08:54:14.993Z,1116.00
2018-10-09T08:55:14.961Z,1124.00
2018-10-09T08:56:14.926Z,1132.00
2018-10-09T08:57:14.948Z,1148.00
2018-10-09T08:58:14.858Z,1168.00
2018-10-09T08:59:14.823Z,1196.00
2018-10-09T09:00:14.789Z,1212.00
2018-10-09T09:01:14.756Z,1232.00
2018-10-09T09:02:14.730Z,1244.00
2018-10-09T09:03:14.686Z,1252.00
2018-10-09T09:04:14.652Z,1288.00
2018-10-09T09:05:14.617Z,1340.00
2018-10-09T09:06:14.588Z,1452.00
2018-10-09T09:07:14.564Z,1552.00
2018-10-09T09:08:14.520Z,1580.00
2018-10-09T09:09:14.482Z,1596.00
2018-10-09T09:10:14.450Z,1612.00
2018-10-09T09:11:14.445Z,1636.00
2018-10-09T09:12:14.421Z,1636.00
2018-10-09T09:13:14.347Z,1624.00
2018-10-09T09:14:14.331Z,1592.00
2018-10-09T09:15:14.300Z,1528.00
2018-10-09T09:16:14.245Z,1540.00
2018-10-09T09:17:14.222Z,1592.00
2018-10-09T09:18:14.183Z,1644.00
2018-10-09T09:19:14.146Z,1624.00
2018-10-09T09:20:14.107Z,1596.00
2018-10-09T09:21:14.103Z,1584.00
2018-10-09T09:22:14.050Z,1556.00
2018-10-09T09:23:14.008Z,1560.00
2018-10-09T09:24:13.972Z,1592.00
2018-10-09T09:25:13.944Z,1616.00
2018-10-09T09:26:13.958Z,1644.00
2018-10-09T09:27:13.963Z,1668.00
2018-10-09T09:28:13.853Z,1680.00
2018-10-09T09:29:13.816Z,1692.00
2018-10-09T09:30:13.771Z,1708.00
2018-10-09T09:31:13.739Z,1712.00
2018-10-09T09:32:13.712Z,1716.00
2018-10-09T09:33:13.749Z,1724.00
2018-10-09T09:34:13.639Z,1732.00
2018-10-09T09:35:13.605Z,1740.00
2018-10-09T09:36:13.573Z,1744.00
2018-10-09T09:37:13.553Z,1756.00
2018-10-09T09:38:13.504Z,1756.00
2018-10-09T09:39:13.504Z,1756.00
2018-10-09T09:40:13.438Z,1760.00
2018-10-09T09:41:13.409Z,1760.00
2018-10-09T09:42:13.476Z,1760.00
2018-10-09T09:43:13.340Z,1760.00
2018-10-09T09:44:13.303Z,1752.00
2018-10-09T09:45:13.274Z,1736.00
2018-10-09T09:46:13.268Z,1704.00
2018-10-09T09:47:13.218Z,1652.00
2018-10-09T09:48:13.177Z,1532.00
2018-10-09T09:49:13.145Z,1472.00
2018-10-09T09:50:13.106Z,1476.00
2018-10-09T09:51:13.072Z,1496.00
2018-10-09T09:52:13.137Z,1524.00
2018-10-09T09:53:13.010Z,1544.00
2018-10-09T09:54:12.977Z,1536.00
2018-10-09T09:55:12.950Z,1576.00
2018-10-09T09:56:12.911Z,1632.00
2018-10-09T09:57:12.896Z,1700.00
2018-10-09T09:58:12.964Z,1772.00
2018-10-09T09:59:12.827Z,1796.00
2018-10-09T10:00:12.782Z,1812.00
2018-10-09T10:01:12.746Z,1896.00
2018-10-09T10:02:12.848Z,1984.00
2018-10-09T10:03:12.683Z,1968.00
2018-10-09T10:04:12.648Z,2044.00
2018-10-09T10:05:12.620Z,2136.00
2018-10-09T10:06:12.584Z,2184.00
2018-10-09T10:07:12.553Z,2216.00
2018-10-09T10:08:12.525Z,2244.00
2018-10-09T10:09:12.516Z,2272.00
2018-10-09T10:10:12.456Z,2300.00
2018-10-09T10:11:12.420Z,2324.00
2018-10-09T10:12:12.405Z,2352.00
2018-10-09T10:13:12.364Z,2388.00
2018-10-09T10:14:12.323Z,2416.00
2018-10-09T10:15:12.296Z,2452.00
2018-10-09T10:16:12.257Z,2484.00
2018-10-09T10:17:12.227Z,2524.00
2018-10-09T10:18:12.203Z,2556.00
2018-10-09T10:19:12.165Z,2592.00
2018-10-09T10:20:12.131Z,2628.00
2018-10-09T10:21:12.136Z,2664.00
2018-10-09T10:22:12.064Z,2696.00
2018-10-09T10:23:12.047Z,2736.00
2018-10-09T10:24:12.009Z,2760.00
2018-10-09T10:25:11.975Z,2796.00
2018-10-09T10:26:11.940Z,2832.00
2018-10-09T10:27:11.907Z,2860.00
2018-10-09T10:28:11.886Z,2888.00
2018-10-09T10:29:11.901Z,2916.00
2018-10-09T10:30:11.813Z,2928.00
2018-10-09T10:31:11.783Z,2940.00
2018-10-09T10:32:11.751Z,2948.00
2018-10-09T10:33:11.728Z,2960.00
2018-10-09T10:34:11.688Z,2972.00
2018-10-09T10:35:11.657Z,2996.00
2018-10-09T10:36:11.632Z,3008.00
2018-10-09T10:37:11.596Z,3016.00
2018-10-09T10:38:11.575Z,3008.00
2018-10-09T10:39:11.536Z,3000.00
2018-10-09T10:40:11.505Z,2984.00
2018-10-09T10:41:11.477Z,2972.00
2018-10-09T10:42:11.466Z,2952.00
2018-10-09T10:43:11.422Z,2932.00
2018-10-09T10:44:11.390Z,2908.00
2018-10-09T10:45:11.351Z,2884.00
2018-10-09T10:46:11.320Z,2864.00
2018-10-09T10:47:11.291Z,2844.00
2018-10-09T10:48:11.268Z,2820.00
2018-10-09T10:49:11.314Z,2792.00
2018-10-09T10:50:11.205Z,2760.00
2018-10-09T10:51:11.171Z,2728.00
2018-10-09T10:52:11.141Z,2704.00
2018-10-09T10:53:11.121Z,2680.00
2018-10-09T10:54:11.085Z,2648.00
2018-10-09T10:55:11.065Z,2596.00
2018-10-09T10:56:11.041Z,2532.00
2018-10-09T10:57:11.016Z,2464.00
2018-10-09T10:58:11.014Z,2440.00
2018-10-09T10:59:10.960Z,2396.00
2018-10-09T11:00:10.905Z,2380.00
2018-10-09T11:01:10.940Z,2380.00
2018-10-09T11:02:10.865Z,2380.00
2018-10-09T11:03:10.851Z,2372.00
2018-10-09T11:04:10.812Z,2344.00
2018-10-09T11:05:10.755Z,2332.00
2018-10-09T11:06:10.728Z,2312.00
2018-10-09T11:07:10.694Z,2308.00
2018-10-09T11:08:10.733Z,2308.00
2018-10-09T11:09:10.652Z,2312.00
2018-10-09T11:10:10.624Z,2324.00
2018-10-09T11:11:10.598Z,2340.00
2018-10-09T11:12:10.545Z,2352.00
2018-10-09T11:13:10.537Z,2356.00
2018-10-09T11:14:10.482Z,2372.00
2018-10-09T11:15:10.452Z,2384.00
2018-10-09T11:16:10.423Z,2404.00
2018-10-09T11:17:10.395Z,2424.00
2018-10-09T11:18:10.362Z,2444.00
2018-10-09T11:19:10.338Z,2468.00
2018-10-09T11:20:10.300Z,2492.00
2018-10-09T11:21:10.345Z,2516.00
2018-10-09T11:22:10.243Z,2548.00
2018-10-09T11:23:10.214Z,2576.00
2018-10-09T11:24:10.190Z,2612.00
2018-10-09T11:25:10.155Z,2640.00
2018-10-09T11:26:10.127Z,2672.00
2018-10-09T11:27:10.091Z,2684.00
2018-10-09T11:28:10.059Z,2700.00
2018-10-09T11:29:10.037Z,2684.00
2018-10-09T11:30:10.002Z,2684.00
2018-10-09T11:31:09.971Z,2692.00
2018-10-09T11:32:09.942Z,2688.00
2018-10-09T11:33:09.913Z,2716.00
2018-10-09T11:34:09.898Z,2760.00
2018-10-09T11:35:09.852Z,2780.00
2018-10-09T11:36:09.822Z,2788.00
2018-10-09T11:37:09.791Z,2796.00
2018-10-09T11:38:09.761Z,2800.00
2018-10-09T11:39:09.742Z,2804.00
2018-10-09T11:40:09.703Z,2796.00
2018-10-09T11:41:09.673Z,2784.00
2018-10-09T11:42:09.645Z,2764.00
2018-10-09T11:43:09.616Z,2736.00
2018-10-09T11:44:09.593Z,2724.00
2018-10-09T11:45:09.555Z,2728.00
2018-10-09T11:46:09.527Z,2720.00
2018-10-09T11:47:09.497Z,2720.00
2018-10-09T11:48:09.468Z,2724.00
2018-10-09T11:49:09.446Z,2736.00
2018-10-09T11:50:09.406Z,2728.00
2018-10-09T11:51:09.377Z,2720.00
2018-10-09T11:52:09.349Z,2704.00
2018-10-09T11:53:09.318Z,2676.00
2018-10-09T11:54:09.299Z,2628.00
2018-10-09T11:55:09.260Z,2600.00
2018-10-09T11:56:09.232Z,2556.00
2018-10-09T11:57:09.203Z,2516.00
2018-10-09T11:58:09.171Z,2504.00
2018-10-09T11:59:09.197Z,2488.00
2018-10-09T12:00:09.112Z,2456.00
2018-10-09T12:01:09.081Z,2412.00
2018-10-09T12:02:09.059Z,2356.00
2018-10-09T12:03:09.027Z,2284.00
2018-10-09T12:04:09.004Z,2248.00
2018-10-09T12:05:08.968Z,2228.00
2018-10-09T12:06:08.938Z,2224.00
2018-10-09T12:07:08.910Z,2216.00
2018-10-09T12:08:08.891Z,2192.00
2018-10-09T12:09:08.859Z,2164.00
2018-10-09T12:10:08.821Z,2136.00
2018-10-09T12:11:08.810Z,2116.00
2018-10-09T12:12:08.767Z,2108.00
2018-10-09T12:13:08.733Z,2104.00
2018-10-09T12:14:08.719Z,2100.00
2018-10-09T12:15:08.677Z,2088.00
2018-10-09T12:16:08.647Z,2072.00
2018-10-09T12:17:08.619Z,2064.00
2018-10-09T12:18:08.587Z,2060.00
2018-10-09T12:19:08.566Z,2052.00
2018-10-09T12:20:08.528Z,2060.00
2018-10-09T12:21:08.499Z,2060.00
2018-10-09T12:22:08.469Z,2072.00
2018-10-09T12:23:08.443Z,2056.00
2018-10-09T12:24:08.416Z,2040.00
2018-10-09T12:25:08.383Z,2016.00
2018-10-09T12:26:08.361Z,2008.00
2018-10-09T12:27:08.381Z,2020.00
2018-10-09T12:28:08.294Z,2004.00
2018-10-09T12:29:08.278Z,1988.00
2018-10-09T12:30:08.237Z,1968.00
2018-10-09T12:31:08.208Z,1928.00
2018-10-09T12:32:08.177Z,1904.00
2018-10-09T12:33:08.147Z,1892.00
2018-10-09T12:34:08.125Z,1896.00
2018-10-09T12:35:08.102Z,1900.00
2018-10-09T12:36:08.059Z,1908.00
2018-10-09T12:37:08.032Z,1916.00
2018-10-09T12:38:08.003Z,1920.00